createdAt,value
2019-02-15T00:02:02.981Z,18.83
2019-02-15T00:06:23.748Z,19.67
2019-02-15T00:10:37.859Z,20.23
2019-02-15T00:14:52.500Z,21.30
2019-02-15T00:19:09.055Z,21.57
2019-02-15T00:23:22.973Z,20.57
2019-02-15T00:27:37.546Z,21.87
2019-02-15T00:31:51.565Z,21.93
2019-02-15T00:36:06.241Z,20.30
2019-02-15T00:40:23.220Z,27.70
2019-02-15T00:44:37.400Z,23.03
2019-02-15T00:48:52.355Z,25.10
2019-02-15T00:53:11.297Z,23.53
2019-02-15T00:57:27.816Z,24.80
2019-02-15T01:02:02.270Z,21.70
2019-02-15T01:06:24.126Z,22.00
2019-02-15T01:10:43.761Z,20.57
2019-02-15T01:14:58.257Z,19.77
2019-02-15T01:18:59.163Z,17.53
2019-02-15T01:23:19.960Z,17.30
2019-02-15T01:28:00.694Z,15.70
2019-02-15T01:32:41.317Z,14.67
2019-02-15T01:50:08.658Z,15.00
2019-02-15T01:54:29.504Z,14.53
2019-02-15T01:58:30.327Z,13.37
2019-02-15T02:02:51.202Z,16.40
2019-02-15T02:07:12.056Z,15.77
2019-02-15T02:11:26.876Z,15.53
2019-02-15T02:15:41.516Z,13.80
2019-02-15T02:19:56.038Z,12.73
2019-02-15T02:24:10.861Z,12.10
2019-02-15T02:28:24.584Z,11.60
2019-02-15T02:32:38.430Z,11.27
2019-02-15T02:36:53.107Z,11.27
2019-02-15T02:41:07.654Z,10.80
2019-02-15T02:45:22.305Z,10.90
2019-02-15T02:49:37.043Z,10.23
2019-02-15T02:53:38.016Z,10.20
2019-02-15T02:57:58.771Z,10.70
2019-02-15T03:02:19.505Z,11.10
2019-02-15T03:06:40.463Z,10.00
2019-02-15T03:10:54.609Z,9.63
2019-02-15T03:15:09.321Z,10.20
2019-02-15T03:19:23.768Z,10.20
2019-02-15T03:23:38.316Z,8.47
2019-02-15T03:27:52.861Z,9.93
2019-02-15T03:32:07.171Z,11.67
2019-02-15T03:36:23.505Z,10.93
2019-02-15T03:40:39.410Z,10.27
2019-02-15T03:44:53.765Z,10.57
2019-02-15T03:49:08.182Z,9.07
2019-02-15T03:53:09.156Z,10.40
2019-02-15T03:57:29.889Z,10.57
2019-02-15T04:01:50.713Z,9.53
2019-02-15T04:06:11.547Z,9.53
2019-02-15T04:10:26.189Z,12.67
2019-02-15T04:14:40.107Z,11.30
2019-02-15T04:18:54.896Z,11.30
2019-02-15T04:23:09.530Z,10.90
2019-02-15T04:27:24.065Z,9.63
2019-02-15T04:31:38.694Z,9.30
2019-02-15T04:35:53.335Z,10.13
2019-02-15T04:40:07.799Z,9.37
2019-02-15T04:44:22.439Z,9.10
2019-02-15T04:48:23.468Z,10.27
2019-02-15T04:52:44.231Z,9.23
2019-02-15T04:57:05.072Z,11.30
2019-02-15T05:01:05.929Z,10.07
2019-02-15T05:05:26.664Z,14.23
2019-02-15T05:09:47.424Z,15.63
2019-02-15T05:14:02.109Z,12.77
2019-02-15T05:18:16.877Z,11.67
2019-02-15T05:22:30.778Z,14.83
2019-02-15T05:26:45.394Z,10.60
2019-02-15T05:31:00.011Z,10.87
2019-02-15T05:35:14.385Z,10.87
2019-02-15T05:39:29.025Z,11.53
2019-02-15T05:43:43.552Z,10.67
2019-02-15T05:47:58.064Z,10.93
2019-02-15T05:52:12.647Z,11.47
2019-02-15T05:56:27.254Z,11.53
2019-02-15T06:00:41.638Z,11.77
2019-02-15T06:04:56.018Z,10.87
2019-02-15T06:08:57.207Z,19.67
2019-02-15T06:13:11.192Z,24.67
2019-02-15T06:17:25.930Z,21.70
2019-02-15T06:21:40.379Z,21.43
2019-02-15T06:25:54.450Z,27.87
2019-02-15T06:30:09.132Z,29.67
2019-02-15T06:34:23.565Z,30.23
2019-02-15T06:38:38.175Z,33.67
2019-02-15T06:42:52.958Z,19.20
2019-02-15T06:47:07.428Z,18.20
2019-02-15T06:51:22.131Z,11.43
2019-02-15T06:55:37.052Z,12.93
2019-02-15T06:59:53.303Z,17.23
2019-02-15T07:08:36.283Z,13.17
2019-02-15T07:12:49.997Z,13.50
2019-02-15T07:17:04.546Z,14.77
2019-02-15T07:21:05.717Z,15.07
2019-02-15T07:25:26.502Z,16.10
2019-02-15T07:29:47.243Z,15.33
2019-02-15T07:34:08.009Z,13.97
2019-02-15T07:38:28.851Z,14.13
2019-02-15T07:42:49.693Z,14.03
2019-02-15T07:47:10.546Z,11.73
2019-02-15T07:51:31.263Z,10.47
2019-02-15T07:55:52.096Z,10.43
2019-02-15T08:00:13.357Z,10.57
2019-02-15T08:04:14.307Z,10.97
2019-02-15T08:08:35.053Z,9.20
2019-02-15T08:12:48.874Z,10.80
2019-02-15T08:16:49.858Z,10.93
2019-02-15T08:20:50.754Z,10.33
2019-02-15T08:25:11.617Z,10.50
2019-02-15T08:29:32.372Z,10.07
2019-02-15T08:33:53.212Z,15.40
2019-02-15T08:37:54.122Z,14.73
2019-02-15T08:42:14.873Z,14.83
2019-02-15T08:46:35.604Z,12.30
2019-02-15T08:50:36.477Z,10.57
2019-02-15T08:54:57.213Z,10.40
2019-02-15T08:59:11.148Z,10.43
2019-02-15T09:03:12.160Z,13.23
2019-02-15T09:07:33.033Z,13.83
2019-02-15T09:11:47.143Z,11.10
2019-02-15T09:16:09.826Z,9.33
2019-02-15T09:20:18.169Z,9.80
2019-02-15T09:24:32.906Z,9.50
2019-02-15T09:28:52.432Z,10.57
2019-02-15T09:33:07.080Z,10.20
2019-02-15T09:37:21.581Z,9.37
2019-02-15T09:41:36.016Z,10.23
2019-02-15T09:45:50.638Z,9.17
2019-02-15T09:50:05.435Z,8.20
2019-02-15T09:54:19.883Z,8.97
2019-02-15T09:58:34.279Z,8.77
2019-02-15T10:02:49.063Z,8.97
2019-02-15T10:07:03.406Z,8.23
2019-02-15T10:11:17.901Z,7.37
2019-02-15T10:15:32.791Z,7.90
2019-02-15T10:19:48.700Z,6.60
2019-02-15T10:24:02.676Z,6.60
2019-02-15T10:28:17.260Z,7.33
2019-02-15T10:32:31.161Z,7.10
2019-02-15T10:36:32.186Z,7.93
2019-02-15T10:40:52.956Z,7.87
2019-02-15T10:45:14.285Z,6.57
2019-02-15T10:49:35.041Z,7.20
2019-02-15T10:53:55.770Z,6.23
2019-02-15T10:58:16.618Z,7.07
2019-02-15T11:02:37.369Z,7.97
2019-02-15T11:06:58.232Z,7.53
2019-02-15T11:11:19.038Z,6.27
2019-02-15T11:16:01.595Z,7.20
2019-02-15T11:20:22.860Z,6.07
2019-02-15T11:24:43.842Z,7.10
2019-02-15T11:29:04.674Z,6.83
2019-02-15T11:33:25.431Z,6.40
2019-02-15T11:37:46.157Z,7.27
2019-02-15T11:42:07.085Z,7.80
2019-02-15T11:46:27.872Z,7.33
2019-02-15T11:50:48.676Z,5.90
2019-02-15T11:55:09.895Z,6.07
2019-02-15T11:59:32.526Z,5.33
2019-02-15T12:03:53.370Z,5.87
2019-02-15T12:08:14.207Z,5.80
2019-02-15T12:12:28.932Z,5.50
2019-02-15T12:16:43.547Z,5.40
2019-02-15T12:20:58.065Z,6.57
2019-02-15T12:25:12.641Z,5.70
2019-02-15T12:34:02.611Z,5.80
2019-02-15T12:38:23.459Z,5.40
2019-02-15T12:42:44.324Z,5.23
2019-02-15T12:47:05.160Z,4.40
2019-02-15T12:51:25.906Z,4.93
2019-02-15T12:55:26.797Z,4.83
2019-02-15T12:59:50.221Z,3.77
2019-02-15T13:03:51.217Z,4.50
2019-02-15T13:08:11.949Z,4.40
2019-02-15T13:12:26.923Z,4.37
2019-02-15T13:16:41.271Z,4.07
2019-02-15T13:20:55.739Z,3.30
2019-02-15T13:25:10.196Z,3.47
2019-02-15T13:29:24.724Z,4.30
2019-02-15T13:33:39.060Z,4.53
2019-02-15T13:37:40.275Z,4.30
2019-02-15T13:42:01.154Z,4.50
2019-02-15T13:46:22.005Z,4.37
2019-02-15T13:50:42.983Z,5.30
2019-02-15T13:55:04.200Z,4.50
2019-02-15T13:59:05.154Z,4.50
2019-02-15T14:03:25.924Z,3.77
2019-02-15T14:07:46.724Z,5.20
2019-02-15T14:12:02.971Z,8.03
2019-02-15T14:16:19.615Z,5.67
2019-02-15T14:20:33.974Z,5.03
2019-02-15T14:24:47.928Z,6.57
2019-02-15T14:29:01.785Z,5.80
2019-02-15T14:33:15.704Z,6.80
2019-02-15T14:37:30.337Z,6.30
2019-02-15T14:41:44.749Z,7.20
2019-02-15T14:45:59.090Z,8.03
2019-02-15T14:50:13.798Z,7.03
2019-02-15T14:54:28.468Z,7.60
2019-02-15T14:58:42.817Z,6.47
2019-02-15T15:02:57.414Z,7.67
2019-02-15T15:07:12.192Z,6.27
2019-02-15T15:11:26.673Z,6.40
2019-02-15T15:15:40.999Z,6.80
2019-02-15T15:19:42.003Z,7.40
2019-02-15T15:24:02.889Z,6.40
2019-02-15T15:28:23.639Z,6.63
2019-02-15T15:32:44.429Z,6.87
2019-02-15T15:37:05.278Z,6.90
2019-02-15T15:41:06.246Z,7.30
2019-02-15T15:45:27.205Z,10.83
2019-02-15T15:50:09.713Z,8.30
2019-02-15T15:54:30.451Z,7.47
2019-02-15T15:58:51.684Z,6.73
2019-02-15T16:03:12.528Z,7.23
2019-02-15T16:07:33.373Z,6.93
2019-02-15T16:11:34.440Z,7.97
2019-02-15T16:15:49.344Z,7.23
2019-02-15T16:20:03.638Z,9.10
2019-02-15T16:24:17.762Z,9.77
2019-02-15T16:28:18.695Z,12.50
2019-02-15T16:32:39.551Z,11.63
2019-02-15T16:37:00.553Z,11.00
2019-02-15T16:41:21.343Z,12.73
2019-02-15T16:45:42.102Z,14.00
2019-02-15T16:50:03.048Z,12.10
2019-02-15T16:54:03.910Z,12.60
2019-02-15T16:58:24.795Z,10.80
2019-02-15T17:02:45.677Z,9.80
2019-02-15T17:07:06.544Z,9.00
2019-02-15T17:11:27.291Z,10.30
2019-02-15T17:15:48.156Z,9.23
2019-02-15T17:20:09.262Z,7.80
2019-02-15T17:24:30.033Z,8.43
2019-02-15T17:28:50.925Z,8.77
2019-02-15T17:33:11.789Z,9.70
2019-02-15T17:37:12.688Z,11.57
2019-02-15T17:41:13.562Z,9.60
2019-02-15T17:45:34.342Z,11.03
2019-02-15T17:49:35.438Z,10.87
2019-02-15T17:53:56.167Z,10.50
2019-02-15T17:58:16.923Z,12.53
2019-02-15T18:02:37.898Z,13.80
2019-02-15T18:06:58.832Z,9.90
2019-02-15T18:11:19.622Z,10.43
2019-02-15T18:15:33.729Z,9.37
2019-02-15T18:19:48.418Z,9.53
2019-02-15T18:24:03.026Z,9.47
2019-02-15T18:28:17.313Z,8.67
2019-02-15T18:32:31.907Z,10.77
2019-02-15T18:36:45.781Z,11.00
2019-02-15T18:41:00.389Z,9.77
2019-02-15T18:45:14.929Z,13.07
2019-02-15T18:49:28.899Z,10.07
2019-02-15T18:53:43.516Z,10.33
2019-02-15T18:57:57.636Z,9.47
2019-02-15T19:02:12.117Z,8.40
2019-02-15T19:06:26.855Z,10.07
2019-02-15T19:10:41.413Z,8.83
2019-02-15T19:14:56.008Z,9.40
2019-02-15T19:19:10.553Z,10.33
2019-02-15T19:23:25.164Z,10.37
2019-02-15T19:27:39.572Z,11.80
2019-02-15T19:31:54.192Z,17.37
2019-02-15T19:36:09.115Z,14.57
2019-02-15T19:40:23.588Z,10.97
2019-02-15T19:44:38.357Z,9.33
2019-02-15T19:48:52.961Z,10.43
2019-02-15T19:53:07.577Z,10.20
2019-02-15T19:57:22.262Z,13.27
2019-02-15T20:01:36.822Z,13.97
2019-02-15T20:05:51.352Z,13.60
2019-02-15T20:10:05.917Z,12.33
2019-02-15T20:14:20.298Z,12.47
2019-02-15T20:18:35.108Z,14.47
2019-02-15T20:22:49.826Z,12.97
2019-02-15T20:27:04.468Z,12.70
2019-02-15T20:31:19.077Z,17.10
2019-02-15T20:35:33.855Z,13.20
2019-02-15T20:39:48.732Z,12.53
2019-02-15T20:43:50.071Z,14.10
2019-02-15T20:48:12.780Z,13.90
2019-02-15T20:52:33.779Z,13.20
2019-02-15T20:56:55.080Z,12.87
2019-02-15T21:01:15.923Z,12.80
2019-02-15T21:05:36.722Z,12.13
2019-02-15T21:09:57.917Z,11.77
2019-02-15T21:14:12.471Z,12.83
2019-02-15T21:18:13.356Z,12.53
2019-02-15T21:22:14.240Z,12.37
2019-02-15T21:26:15.115Z,13.07
2019-02-15T21:30:36.075Z,11.87
2019-02-15T21:34:57.006Z,12.57
2019-02-15T21:39:17.885Z,12.43
2019-02-15T21:43:38.741Z,12.50
2019-02-15T21:47:59.730Z,12.83
2019-02-15T21:52:20.686Z,13.63
2019-02-15T21:56:41.511Z,11.47
2019-02-15T22:01:02.392Z,12.10
2019-02-15T22:05:23.244Z,12.93
2019-02-15T22:09:44.241Z,12.03
2019-02-15T22:13:45.228Z,11.77
2019-02-15T22:18:05.988Z,11.70
2019-02-15T22:22:26.764Z,11.53
2019-02-15T22:26:47.644Z,11.63
2019-02-15T22:31:08.384Z,12.33
2019-02-15T22:35:29.084Z,11.63
2019-02-15T22:39:50.108Z,13.30
2019-02-15T22:44:10.984Z,12.50
2019-02-15T22:48:31.761Z,15.17
2019-02-15T22:52:52.469Z,13.17
2019-02-15T22:57:13.250Z,14.13
2019-02-15T23:01:34.190Z,12.57
2019-02-15T23:05:35.255Z,12.27
2019-02-15T23:09:36.126Z,12.37
2019-02-15T23:13:50.641Z,12.90
2019-02-15T23:18:05.359Z,14.23
2019-02-15T23:22:19.729Z,13.83
2019-02-15T23:26:36.769Z,17.33
2019-02-15T23:30:51.399Z,17.80
2019-02-15T23:35:06.046Z,17.37
2019-02-15T23:39:20.786Z,16.73
2019-02-15T23:43:35.352Z,20.30
2019-02-15T23:47:36.250Z,18.30
2019-02-15T23:51:37.259Z,21.83
2019-02-15T23:55:58.023Z,22.13
